sensor_id;sensor_type;location;lat;lon;timestamp;temperature;humidity
74376;HTU21D;62812;55.188;61.302;2023-06-19T00:00:06;12.36;66.55
74376;HTU21D;62812;55.188;61.302;2023-06-19T00:02:39;12.32;65.30
74376;HTU21D;62812;55.188;61.302;2023-06-19T00:05:06;12.33;65.78
74376;HTU21D;62812;55.188;61.302;2023-06-19T00:07:34;12.32;63.96
74376;HTU21D;62812;55.188;61.302;2023-06-19T00:10:01;12.35;65.70
74376;HTU21D;62812;55.188;61.302;2023-06-19T00:12:28;12.30;68.18
74376;HTU21D;62812;55.188;61.302;2023-06-19T00:14:55;12.28;66.57
74376;HTU21D;62812;55.188;61.302;2023-06-19T00:17:27;12.30;64.21
74376;HTU21D;62812;55.188;61.302;2023-06-19T00:19:54;12.26;64.17
74376;HTU21D;62812;55.188;61.302;2023-06-19T00:22:21;12.30;65.02
74376;HTU21D;62812;55.188;61.302;2023-06-19T00:24:48;12.31;64.53
74376;HTU21D;62812;55.188;61.302;2023-06-19T00:27:15;12.34;64.22
74376;HTU21D;62812;55.188;61.302;2023-06-19T00:29:42;12.40;64.12
74376;HTU21D;62812;55.188;61.302;2023-06-19T00:32:10;12.45;65.81
74376;HTU21D;62812;55.188;61.302;2023-06-19T00:34:38;12.47;65.36
74376;HTU21D;62812;55.188;61.302;2023-06-19T00:37:05;12.44;66.17
74376;HTU21D;62812;55.188;61.302;2023-06-19T00:39:32;12.46;65.84
74376;HTU21D;62812;55.188;61.302;2023-06-19T00:41:59;12.43;63.69
74376;HTU21D;62812;55.188;61.302;2023-06-19T00:44:29;12.49;62.67
74376;HTU21D;62812;55.188;61.302;2023-06-19T00:46:58;12.47;65.99
74376;HTU21D;62812;55.188;61.302;2023-06-19T00:49:30;12.36;64.22
74376;HTU21D;62812;55.188;61.302;2023-06-19T00:52:03;12.35;65.83
74376;HTU21D;62812;55.188;61.302;2023-06-19T00:54:31;12.36;63.55
74376;HTU21D;62812;55.188;61.302;2023-06-19T00:57:00;12.38;63.34
74376;HTU21D;62812;55.188;61.302;2023-06-19T00:59:27;12.38;63.72
74376;HTU21D;62812;55.188;61.302;2023-06-19T01:01:56;12.40;62.80
74376;HTU21D;62812;55.188;61.302;2023-06-19T01:04:23;12.42;62.26
74376;HTU21D;62812;55.188;61.302;2023-06-19T01:06:54;12.48;62.98
74376;HTU21D;62812;55.188;61.302;2023-06-19T01:09:35;12.46;64.14
74376;HTU21D;62812;55.188;61.302;2023-06-19T01:12:08;12.42;64.59
74376;HTU21D;62812;55.188;61.302;2023-06-19T01:14:46;12.36;62.51
74376;HTU21D;62812;55.188;61.302;2023-06-19T01:17:16;12.29;63.98
74376;HTU21D;62812;55.188;61.302;2023-06-19T01:19:43;12.27;63.36
74376;HTU21D;62812;55.188;61.302;2023-06-19T01:22:23;12.25;63.54
74376;HTU21D;62812;55.188;61.302;2023-06-19T01:24:50;12.28;62.84
74376;HTU21D;62812;55.188;61.302;2023-06-19T01:27:17;12.32;65.58
74376;HTU21D;62812;55.188;61.302;2023-06-19T01:29:48;12.29;65.36
74376;HTU21D;62812;55.188;61.302;2023-06-19T01:32:20;12.28;63.21
74376;HTU21D;62812;55.188;61.302;2023-06-19T01:34:50;12.32;62.90
74376;HTU21D;62812;55.188;61.302;2023-06-19T01:37:19;12.35;64.27
74376;HTU21D;62812;55.188;61.302;2023-06-19T01:39:47;12.44;62.59
74376;HTU21D;62812;55.188;61.302;2023-06-19T01:42:15;12.49;65.35
74376;HTU21D;62812;55.188;61.302;2023-06-19T01:44:43;12.49;63.02
74376;HTU21D;62812;55.188;61.302;2023-06-19T01:47:10;12.46;65.77
74376;HTU21D;62812;55.188;61.302;2023-06-19T01:49:38;12.46;64.28
74376;HTU21D;62812;55.188;61.302;2023-06-19T01:52:05;12.56;62.19
74376;HTU21D;62812;55.188;61.302;2023-06-19T01:57:37;12.62;64.46
74376;HTU21D;62812;55.188;61.302;2023-06-19T02:00:08;12.67;63.17
74376;HTU21D;62812;55.188;61.302;2023-06-19T02:02:37;12.69;64.44
74376;HTU21D;62812;55.188;61.302;2023-06-19T02:05:04;12.69;65.33
74376;HTU21D;62812;55.188;61.302;2023-06-19T02:07:32;12.66;62.06
74376;HTU21D;62812;55.188;61.302;2023-06-19T02:09:59;12.63;64.71
74376;HTU21D;62812;55.188;61.302;2023-06-19T02:12:26;12.51;64.23
74376;HTU21D;62812;55.188;61.302;2023-06-19T02:14:58;12.41;67.24
74376;HTU21D;62812;55.188;61.302;2023-06-19T02:17:25;12.22;68.10
74376;HTU21D;62812;55.188;61.302;2023-06-19T02:19:57;12.07;68.05
74376;HTU21D;62812;55.188;61.302;2023-06-19T02:22:27;12.11;68.17
74376;HTU21D;62812;55.188;61.302;2023-06-19T02:24:54;12.06;68.09
74376;HTU21D;62812;55.188;61.302;2023-06-19T02:27:22;12.06;65.36
74376;HTU21D;62812;55.188;61.302;2023-06-19T02:29:50;12.15;68.12
74376;HTU21D;62812;55.188;61.302;2023-06-19T02:32:21;12.14;69.34
74376;HTU21D;62812;55.188;61.302;2023-06-19T02:34:49;12.17;69.00
74376;HTU21D;62812;55.188;61.302;2023-06-19T02:37:16;12.18;68.94
74376;HTU21D;62812;55.188;61.302;2023-06-19T02:39:45;12.14;69.91
74376;HTU21D;62812;55.188;61.302;2023-06-19T02:42:15;12.07;67.03
74376;HTU21D;62812;55.188;61.302;2023-06-19T02:44:45;12.16;68.91
74376;HTU21D;62812;55.188;61.302;2023-06-19T02:47:16;12.20;64.64
74376;HTU21D;62812;55.188;61.302;2023-06-19T02:50:03;12.32;65.96
74376;HTU21D;62812;55.188;61.302;2023-06-19T02:52:31;12.36;67.06
74376;HTU21D;62812;55.188;61.302;2023-06-19T02:54:58;12.48;64.56
74376;HTU21D;62812;55.188;61.302;2023-06-19T02:57:37;12.59;66.89
74376;HTU21D;62812;55.188;61.302;2023-06-19T03:00:04;12.70;64.79
74376;HTU21D;62812;55.188;61.302;2023-06-19T03:02:35;12.73;63.62
74376;HTU21D;62812;55.188;61.302;2023-06-19T03:05:09;12.65;66.48
74376;HTU21D;62812;55.188;61.302;2023-06-19T03:07:36;12.50;65.47
74376;HTU21D;62812;55.188;61.302;2023-06-19T03:10:04;12.49;66.75
74376;HTU21D;62812;55.188;61.302;2023-06-19T03:13:14;12.58;65.98
74376;HTU21D;62812;55.188;61.302;2023-06-19T03:22:48;12.65;65.18
74376;HTU21D;62812;55.188;61.302;2023-06-19T03:25:15;12.55;65.01
74376;HTU21D;62812;55.188;61.302;2023-06-19T03:27:42;12.42;65.38
74376;HTU21D;62812;55.188;61.302;2023-06-19T03:30:09;12.48;63.31
74376;HTU21D;62812;55.188;61.302;2023-06-19T03:32:39;12.43;64.21
74376;HTU21D;62812;55.188;61.302;2023-06-19T03:35:07;12.38;64.74
74376;HTU21D;62812;55.188;61.302;2023-06-19T03:37:35;12.60;62.81
74376;HTU21D;62812;55.188;61.302;2023-06-19T03:40:14;12.52;64.06
74376;HTU21D;62812;55.188;61.302;2023-06-19T03:42:41;12.52;62.89
74376;HTU21D;62812;55.188;61.302;2023-06-19T03:45:18;12.52;63.17
74376;HTU21D;62812;55.188;61.302;2023-06-19T03:47:54;12.44;63.08
74376;HTU21D;62812;55.188;61.302;2023-06-19T03:50:24;12.50;63.16
74376;HTU21D;62812;55.188;61.302;2023-06-19T03:53:05;12.43;64.25
74376;HTU21D;62812;55.188;61.302;2023-06-19T03:55:54;12.47;63.28
74376;HTU21D;62812;55.188;61.302;2023-06-19T03:58:26;12.46;62.51
74376;HTU21D;62812;55.188;61.302;2023-06-19T04:00:58;12.40;64.85
74376;HTU21D;62812;55.188;61.302;2023-06-19T04:03:32;12.32;65.17
74376;HTU21D;62812;55.188;61.302;2023-06-19T04:06:02;12.33;64.33
74376;HTU21D;62812;55.188;61.302;2023-06-19T04:08:29;12.34;63.91
74376;HTU21D;62812;55.188;61.302;2023-06-19T04:14:06;12.42;65.05
74376;HTU21D;62812;55.188;61.302;2023-06-19T04:16:36;12.45;63.34
74376;HTU21D;62812;55.188;61.302;2023-06-19T04:19:03;12.48;65.21
74376;HTU21D;62812;55.188;61.302;2023-06-19T04:21:33;12.46;65.39
74376;HTU21D;62812;55.188;61.302;2023-06-19T04:24:01;12.56;64.45
74376;HTU21D;62812;55.188;61.302;2023-06-19T04:26:35;12.48;65.54
74376;HTU21D;62812;55.188;61.302;2023-06-19T04:29:06;12.44;66.10
74376;HTU21D;62812;55.188;61.302;2023-06-19T04:31:37;12.43;67.02
74376;HTU21D;62812;55.188;61.302;2023-06-19T04:34:07;12.36;65.14
74376;HTU21D;62812;55.188;61.302;2023-06-19T04:36:34;12.25;66.20
74376;HTU21D;62812;55.188;61.302;2023-06-19T04:39:03;12.18;68.33
74376;HTU21D;62812;55.188;61.302;2023-06-19T04:41:33;12.16;67.14
74376;HTU21D;62812;55.188;61.302;2023-06-19T04:43:59;12.32;65.37
74376;HTU21D;62812;55.188;61.302;2023-06-19T04:46:33;12.44;68.51
74376;HTU21D;62812;55.188;61.302;2023-06-19T04:48:59;12.46;64.82
74376;HTU21D;62812;55.188;61.302;2023-06-19T04:51:33;12.38;67.68
74376;HTU21D;62812;55.188;61.302;2023-06-19T04:53:59;12.38;68.10
74376;HTU21D;62812;55.188;61.302;2023-06-19T04:56:27;12.38;67.27
74376;HTU21D;62812;55.188;61.302;2023-06-19T04:58:55;12.23;69.02
74376;HTU21D;62812;55.188;61.302;2023-06-19T05:01:30;12.36;67.55
74376;HTU21D;62812;55.188;61.302;2023-06-19T05:03:58;12.35;69.39
74376;HTU21D;62812;55.188;61.302;2023-06-19T05:06:28;12.12;72.00
74376;HTU21D;62812;55.188;61.302;2023-06-19T05:08:55;11.99;68.94
74376;HTU21D;62812;55.188;61.302;2023-06-19T05:11:25;11.82;73.22
74376;HTU21D;62812;55.188;61.302;2023-06-19T05:13:52;11.78;70.27
74376;HTU21D;62812;55.188;61.302;2023-06-19T05:16:21;11.87;72.10
74376;HTU21D;62812;55.188;61.302;2023-06-19T05:18:54;11.76;72.00
74376;HTU21D;62812;55.188;61.302;2023-06-19T05:21:23;11.74;70.22
74376;HTU21D;62812;55.188;61.302;2023-06-19T05:23:51;11.73;71.10
74376;HTU21D;62812;55.188;61.302;2023-06-19T05:26:20;11.76;69.44
74376;HTU21D;62812;55.188;61.302;2023-06-19T05:28:49;11.79;69.28
74376;HTU21D;62812;55.188;61.302;2023-06-19T05:31:17;11.71;69.37
74376;HTU21D;62812;55.188;61.302;2023-06-19T05:33:45;11.63;71.60
74376;HTU21D;62812;55.188;61.302;2023-06-19T05:36:30;11.61;72.21
74376;HTU21D;62812;55.188;61.302;2023-06-19T05:39:14;11.64;71.28
74376;HTU21D;62812;55.188;61.302;2023-06-19T05:41:49;11.72;67.82
74376;HTU21D;62812;55.188;61.302;2023-06-19T05:44:17;11.67;71.12
74376;HTU21D;62812;55.188;61.302;2023-06-19T05:46:45;11.59;69.58
74376;HTU21D;62812;55.188;61.302;2023-06-19T05:49:12;11.63;70.30
74376;HTU21D;62812;55.188;61.302;2023-06-19T05:51:51;11.58;72.45
74376;HTU21D;62812;55.188;61.302;2023-06-19T05:54:22;11.54;70.55
74376;HTU21D;62812;55.188;61.302;2023-06-19T05:57:11;11.44;72.22
74376;HTU21D;62812;55.188;61.302;2023-06-19T05:59:39;11.36;71.85
74376;HTU21D;62812;55.188;61.302;2023-06-19T06:02:06;11.42;69.71
74376;HTU21D;62812;55.188;61.302;2023-06-19T06:04:34;11.51;70.22
74376;HTU21D;62812;55.188;61.302;2023-06-19T06:07:19;11.58;68.78
74376;HTU21D;62812;55.188;61.302;2023-06-19T06:09:49;11.54;68.72
74376;HTU21D;62812;55.188;61.302;2023-06-19T06:12:17;11.54;69.69
74376;HTU21D;62812;55.188;61.302;2023-06-19T06:14:46;11.51;68.22
74376;HTU21D;62812;55.188;61.302;2023-06-19T06:17:15;11.46;68.06
74376;HTU21D;62812;55.188;61.302;2023-06-19T06:19:44;11.31;69.42
74376;HTU21D;62812;55.188;61.302;2023-06-19T06:22:13;11.34;68.81
74376;HTU21D;62812;55.188;61.302;2023-06-19T06:24:54;11.32;68.02
74376;HTU21D;62812;55.188;61.302;2023-06-19T06:27:23;11.27;68.20
74376;HTU21D;62812;55.188;61.302;2023-06-19T06:29:52;11.19;68.75
74376;HTU21D;62812;55.188;61.302;2023-06-19T06:32:21;11.29;67.71
74376;HTU21D;62812;55.188;61.302;2023-06-19T06:34:48;11.39;67.49
74376;HTU21D;62812;55.188;61.302;2023-06-19T06:37:17;11.37;69.18
74376;HTU21D;62812;55.188;61.302;2023-06-19T06:42:57;11.26;68.55
74376;HTU21D;62812;55.188;61.302;2023-06-19T06:45:27;11.27;68.77
74376;HTU21D;62812;55.188;61.302;2023-06-19T06:48:04;11.31;68.25
74376;HTU21D;62812;55.188;61.302;2023-06-19T06:51:15;11.29;68.94
74376;HTU21D;62812;55.188;61.302;2023-06-19T06:54:22;11.18;69.74
74376;HTU21D;62812;55.188;61.302;2023-06-19T08:31:12;12.13;63.30
74376;HTU21D;62812;55.188;61.302;2023-06-19T08:33:51;12.29;63.43
74376;HTU21D;62812;55.188;61.302;2023-06-19T08:36:23;12.30;62.55
74376;HTU21D;62812;55.188;61.302;2023-06-19T08:39:02;12.33;61.96
74376;HTU21D;62812;55.188;61.302;2023-06-19T08:41:53;12.15;63.45
74376;HTU21D;62812;55.188;61.302;2023-06-19T08:44:25;12.27;61.41
74376;HTU21D;62812;55.188;61.302;2023-06-19T08:47:29;12.40;60.77
74376;HTU21D;62812;55.188;61.302;2023-06-19T08:50:00;12.51;59.90
74376;HTU21D;62812;55.188;61.302;2023-06-19T08:52:29;12.53;59.71
74376;HTU21D;62812;55.188;61.302;2023-06-19T08:55:06;12.48;59.83
74376;HTU21D;62812;55.188;61.302;2023-06-19T08:57:54;12.52;59.29
74376;HTU21D;62812;55.188;61.302;2023-06-19T09:04:15;12.75;58.82
74376;HTU21D;62812;55.188;61.302;2023-06-19T09:06:52;12.75;57.98
74376;HTU21D;62812;55.188;61.302;2023-06-19T09:09:31;12.70;58.63
74376;HTU21D;62812;55.188;61.302;2023-06-19T09:13:16;12.77;58.05
74376;HTU21D;62812;55.188;61.302;2023-06-19T09:16:00;12.88;57.57
74376;HTU21D;62812;55.188;61.302;2023-06-19T09:18:42;12.86;57.44
74376;HTU21D;62812;55.188;61.302;2023-06-19T09:21:29;12.97;57.68
74376;HTU21D;62812;55.188;61.302;2023-06-19T09:24:24;12.96;57.76
74376;HTU21D;62812;55.188;61.302;2023-06-19T09:27:08;13.06;57.55
74376;HTU21D;62812;55.188;61.302;2023-06-19T09:29:58;13.29;56.93
74376;HTU21D;62812;55.188;61.302;2023-06-19T09:42:41;13.81;55.29
74376;HTU21D;62812;55.188;61.302;2023-06-19T09:51:52;14.45;53.97
74376;HTU21D;62812;55.188;61.302;2023-06-19T09:54:27;14.63;53.14
74376;HTU21D;62812;55.188;61.302;2023-06-19T09:57:23;14.67;52.97
74376;HTU21D;62812;55.188;61.302;2023-06-19T10:13:11;15.31;50.66
74376;HTU21D;62812;55.188;61.302;2023-06-19T10:30:27;15.74;48.43
74376;HTU21D;62812;55.188;61.302;2023-06-19T10:32:58;16.01;47.15
74376;HTU21D;62812;55.188;61.302;2023-06-19T10:35:26;15.96;46.60
74376;HTU21D;62812;55.188;61.302;2023-06-19T10:38:33;16.00;45.08
74376;HTU21D;62812;55.188;61.302;2023-06-19T10:41:58;16.08;44.71
74376;HTU21D;62812;55.188;61.302;2023-06-19T10:44:36;16.19;44.29
74376;HTU21D;62812;55.188;61.302;2023-06-19T10:50:24;16.04;43.68
74376;HTU21D;62812;55.188;61.302;2023-06-19T10:52:54;16.14;45.32
74376;HTU21D;62812;55.188;61.302;2023-06-19T10:55:24;16.24;44.61
74376;HTU21D;62812;55.188;61.302;2023-06-19T10:58:36;16.15;41.84
74376;HTU21D;62812;55.188;61.302;2023-06-19T11:01:34;16.04;42.73
74376;HTU21D;62812;55.188;61.302;2023-06-19T11:07:29;15.96;43.91
74376;HTU21D;62812;55.188;61.302;2023-06-19T11:10:01;16.00;42.74
74376;HTU21D;62812;55.188;61.302;2023-06-19T11:12:34;15.96;42.62
74376;HTU21D;62812;55.188;61.302;2023-06-19T11:15:39;15.92;42.50
74376;HTU21D;62812;55.188;61.302;2023-06-19T11:18:34;15.97;43.00
74376;HTU21D;62812;55.188;61.302;2023-06-19T11:21:15;15.92;42.84
74376;HTU21D;62812;55.188;61.302;2023-06-19T11:23:47;15.96;43.43
74376;HTU21D;62812;55.188;61.302;2023-06-19T11:26:24;15.89;43.48
74376;HTU21D;62812;55.188;61.302;2023-06-19T11:29:00;16.01;43.83
74376;HTU21D;62812;55.188;61.302;2023-06-19T11:31:30;15.91;44.32
74376;HTU21D;62812;55.188;61.302;2023-06-19T11:34:06;15.85;43.67
74376;HTU21D;62812;55.188;61.302;2023-06-19T11:36:39;15.86;43.84
74376;HTU21D;62812;55.188;61.302;2023-06-19T11:39:11;15.77;44.13
74376;HTU21D;62812;55.188;61.302;2023-06-19T11:41:44;15.81;44.19
74376;HTU21D;62812;55.188;61.302;2023-06-19T11:44:13;15.66;44.84
74376;HTU21D;62812;55.188;61.302;2023-06-19T11:46:47;15.61;46.91
74376;HTU21D;62812;55.188;61.302;2023-06-19T11:49:25;15.76;45.53
74376;HTU21D;62812;55.188;61.302;2023-06-19T11:51:59;16.01;44.52
74376;HTU21D;62812;55.188;61.302;2023-06-19T11:54:45;16.17;44.15
74376;HTU21D;62812;55.188;61.302;2023-06-19T11:57:16;16.27;41.87
74376;HTU21D;62812;55.188;61.302;2023-06-19T11:59:43;16.28;41.46
74376;HTU21D;62812;55.188;61.302;2023-06-19T12:02:13;16.31;42.65
74376;HTU21D;62812;55.188;61.302;2023-06-19T12:04:42;16.18;42.57
74376;HTU21D;62812;55.188;61.302;2023-06-19T12:07:13;16.16;41.94
74376;HTU21D;62812;55.188;61.302;2023-06-19T12:09:42;16.03;41.65
74376;HTU21D;62812;55.188;61.302;2023-06-19T12:12:15;15.91;42.79
74376;HTU21D;62812;55.188;61.302;2023-06-19T12:14:45;15.90;41.94
74376;HTU21D;62812;55.188;61.302;2023-06-19T12:17:19;15.97;42.86
74376;HTU21D;62812;55.188;61.302;2023-06-19T12:19:47;15.80;42.84
74376;HTU21D;62812;55.188;61.302;2023-06-19T12:22:19;15.81;43.52
74376;HTU21D;62812;55.188;61.302;2023-06-19T12:24:49;15.83;43.75
74376;HTU21D;62812;55.188;61.302;2023-06-19T12:27:27;15.76;44.09
74376;HTU21D;62812;55.188;61.302;2023-06-19T12:30:01;15.82;44.25
74376;HTU21D;62812;55.188;61.302;2023-06-19T12:32:32;15.82;43.74
74376;HTU21D;62812;55.188;61.302;2023-06-19T12:35:02;15.84;43.90
74376;HTU21D;62812;55.188;61.302;2023-06-19T12:37:39;15.63;44.09
74376;HTU21D;62812;55.188;61.302;2023-06-19T12:40:14;15.58;43.87
74376;HTU21D;62812;55.188;61.302;2023-06-19T12:42:52;15.54;43.74
74376;HTU21D;62812;55.188;61.302;2023-06-19T12:45:42;15.49;42.97
74376;HTU21D;62812;55.188;61.302;2023-06-19T12:48:56;15.38;44.08
74376;HTU21D;62812;55.188;61.302;2023-06-19T12:51:33;15.25;43.39
74376;HTU21D;62812;55.188;61.302;2023-06-19T12:54:13;15.16;44.09
74376;HTU21D;62812;55.188;61.302;2023-06-19T12:57:33;15.10;45.12
74376;HTU21D;62812;55.188;61.302;2023-06-19T13:00:47;15.13;44.98
74376;HTU21D;62812;55.188;61.302;2023-06-19T13:03:24;15.19;44.90
74376;HTU21D;62812;55.188;61.302;2023-06-19T13:06:00;15.33;44.12
74376;HTU21D;62812;55.188;61.302;2023-06-19T13:08:43;15.53;43.93
74376;HTU21D;62812;55.188;61.302;2023-06-19T13:11:17;15.65;43.46
74376;HTU21D;62812;55.188;61.302;2023-06-19T13:40:54;15.31;43.71
74376;HTU21D;62812;55.188;61.302;2023-06-19T13:47:17;15.22;44.29
74376;HTU21D;62812;55.188;61.302;2023-06-19T13:50:07;15.28;44.60
74376;HTU21D;62812;55.188;61.302;2023-06-19T13:54:03;15.27;43.26
74376;HTU21D;62812;55.188;61.302;2023-06-19T14:13:15;15.10;43.86
74376;HTU21D;62812;55.188;61.302;2023-06-19T14:15:45;14.99;43.91
74376;HTU21D;62812;55.188;61.302;2023-06-19T14:18:15;14.93;45.09
74376;HTU21D;62812;55.188;61.302;2023-06-19T14:20:43;14.99;44.83
74376;HTU21D;62812;55.188;61.302;2023-06-19T14:23:10;14.94;45.04
74376;HTU21D;62812;55.188;61.302;2023-06-19T14:25:39;15.02;45.31
74376;HTU21D;62812;55.188;61.302;2023-06-19T14:28:07;15.02;45.34
74376;HTU21D;62812;55.188;61.302;2023-06-19T14:30:38;14.99;45.54
74376;HTU21D;62812;55.188;61.302;2023-06-19T14:33:44;14.96;45.80
74376;HTU21D;62812;55.188;61.302;2023-06-19T14:36:12;14.99;45.80
74376;HTU21D;62812;55.188;61.302;2023-06-19T14:38:44;14.86;46.51
74376;HTU21D;62812;55.188;61.302;2023-06-19T14:41:23;14.69;46.41
74376;HTU21D;62812;55.188;61.302;2023-06-19T14:43:53;14.59;46.73
74376;HTU21D;62812;55.188;61.302;2023-06-19T14:46:41;14.57;46.92
74376;HTU21D;62812;55.188;61.302;2023-06-19T14:49:12;14.45;47.10
74376;HTU21D;62812;55.188;61.302;2023-06-19T14:51:43;14.36;47.52
74376;HTU21D;62812;55.188;61.302;2023-06-19T14:54:13;14.41;47.61
74376;HTU21D;62812;55.188;61.302;2023-06-19T14:56:52;14.47;47.40
74376;HTU21D;62812;55.188;61.302;2023-06-19T14:59:22;14.45;47.59
74376;HTU21D;62812;55.188;61.302;2023-06-19T15:13:58;14.45;48.74
74376;HTU21D;62812;55.188;61.302;2023-06-19T15:16:28;14.41;48.72
74376;HTU21D;62812;55.188;61.302;2023-06-19T15:18:56;14.41;48.87
74376;HTU21D;62812;55.188;61.302;2023-06-19T15:21:28;14.38;49.18
74376;HTU21D;62812;55.188;61.302;2023-06-19T15:24:05;14.34;49.18
74376;HTU21D;62812;55.188;61.302;2023-06-19T15:26:38;14.35;48.73
74376;HTU21D;62812;55.188;61.302;2023-06-19T15:29:22;14.38;47.81
74376;HTU21D;62812;55.188;61.302;2023-06-19T15:31:53;14.39;47.89
74376;HTU21D;62812;55.188;61.302;2023-06-19T15:34:21;14.28;47.69
74376;HTU21D;62812;55.188;61.302;2023-06-19T15:36:49;14.19;47.73
74376;HTU21D;62812;55.188;61.302;2023-06-19T15:39:18;14.14;49.16
74376;HTU21D;62812;55.188;61.302;2023-06-19T15:41:47;14.08;50.26
74376;HTU21D;62812;55.188;61.302;2023-06-19T15:44:16;14.00;50.18
74376;HTU21D;62812;55.188;61.302;2023-06-19T15:52:56;13.77;53.44
74376;HTU21D;62812;55.188;61.302;2023-06-19T15:55:56;13.69;53.61
74376;HTU21D;62812;55.188;61.302;2023-06-19T15:58:25;13.65;52.40
74376;HTU21D;62812;55.188;61.302;2023-06-19T16:01:31;13.50;54.87
74376;HTU21D;62812;55.188;61.302;2023-06-19T16:04:02;13.39;55.02
74376;HTU21D;62812;55.188;61.302;2023-06-19T16:06:31;13.33;55.86
74376;HTU21D;62812;55.188;61.302;2023-06-19T16:09:05;13.30;55.85
74376;HTU21D;62812;55.188;61.302;2023-06-19T16:11:42;13.29;56.07
74376;HTU21D;62812;55.188;61.302;2023-06-19T16:14:19;13.14;56.03
74376;HTU21D;62812;55.188;61.302;2023-06-19T16:16:52;13.14;56.12
74376;HTU21D;62812;55.188;61.302;2023-06-19T16:19:20;13.07;56.73
74376;HTU21D;62812;55.188;61.302;2023-06-19T16:21:51;12.97;56.65
74376;HTU21D;62812;55.188;61.302;2023-06-19T16:24:20;12.92;57.06
74376;HTU21D;62812;55.188;61.302;2023-06-19T16:26:49;12.92;57.54
74376;HTU21D;62812;55.188;61.302;2023-06-19T16:29:17;12.85;57.51
74376;HTU21D;62812;55.188;61.302;2023-06-19T16:31:48;12.75;57.33
74376;HTU21D;62812;55.188;61.302;2023-06-19T16:34:16;12.66;57.77
74376;HTU21D;62812;55.188;61.302;2023-06-19T16:36:44;12.58;57.25
74376;HTU21D;62812;55.188;61.302;2023-06-19T16:39:12;12.47;59.02
74376;HTU21D;62812;55.188;61.302;2023-06-19T16:42:02;12.41;59.05
74376;HTU21D;62812;55.188;61.302;2023-06-19T16:44:29;12.34;58.38
74376;HTU21D;62812;55.188;61.302;2023-06-19T16:46:58;12.32;59.72
74376;HTU21D;62812;55.188;61.302;2023-06-19T16:49:25;12.18;60.38
74376;HTU21D;62812;55.188;61.302;2023-06-19T16:51:53;12.16;60.05
74376;HTU21D;62812;55.188;61.302;2023-06-19T16:54:22;12.07;61.22
74376;HTU21D;62812;55.188;61.302;2023-06-19T16:56:49;11.98;60.14
74376;HTU21D;62812;55.188;61.302;2023-06-19T17:02:41;11.82;63.46
74376;HTU21D;62812;55.188;61.302;2023-06-19T17:05:09;11.73;61.51
74376;HTU21D;62812;55.188;61.302;2023-06-19T17:07:37;11.64;63.44
74376;HTU21D;62812;55.188;61.302;2023-06-19T17:10:09;11.61;65.31
74376;HTU21D;62812;55.188;61.302;2023-06-19T17:12:40;11.58;63.51
74376;HTU21D;62812;55.188;61.302;2023-06-19T17:15:09;11.52;64.68
74376;HTU21D;62812;55.188;61.302;2023-06-19T17:17:43;11.47;64.24
74376;HTU21D;62812;55.188;61.302;2023-06-19T17:20:11;11.55;66.76
74376;HTU21D;62812;55.188;61.302;2023-06-19T17:22:51;11.54;65.21
74376;HTU21D;62812;55.188;61.302;2023-06-19T17:25:29;11.44;66.15
74376;HTU21D;62812;55.188;61.302;2023-06-19T17:28:08;11.36;67.00
74376;HTU21D;62812;55.188;61.302;2023-06-19T17:31:00;11.32;65.65
74376;HTU21D;62812;55.188;61.302;2023-06-19T17:33:32;11.22;64.93
74376;HTU21D;62812;55.188;61.302;2023-06-19T17:36:00;11.16;64.38
74376;HTU21D;62812;55.188;61.302;2023-06-19T17:38:33;11.10;67.22
74376;HTU21D;62812;55.188;61.302;2023-06-19T17:41:00;11.04;66.33
74376;HTU21D;62812;55.188;61.302;2023-06-19T17:43:28;11.03;64.53
74376;HTU21D;62812;55.188;61.302;2023-06-19T17:45:56;10.98;66.47
74376;HTU21D;62812;55.188;61.302;2023-06-19T17:48:31;10.92;66.40
74376;HTU21D;62812;55.188;61.302;2023-06-19T17:50:59;10.89;66.04
74376;HTU21D;62812;55.188;61.302;2023-06-19T17:53:26;10.88;65.57
74376;HTU21D;62812;55.188;61.302;2023-06-19T17:56:03;10.86;65.30
74376;HTU21D;62812;55.188;61.302;2023-06-19T17:58:33;10.93;63.47
74376;HTU21D;62812;55.188;61.302;2023-06-19T18:04:34;10.82;65.01
74376;HTU21D;62812;55.188;61.302;2023-06-19T18:07:02;10.79;65.25
74376;HTU21D;62812;55.188;61.302;2023-06-19T18:09:30;10.70;64.73
74376;HTU21D;62812;55.188;61.302;2023-06-19T18:12:02;10.68;64.05
74376;HTU21D;62812;55.188;61.302;2023-06-19T18:14:32;10.68;64.76
74376;HTU21D;62812;55.188;61.302;2023-06-19T18:17:00;10.74;63.62
74376;HTU21D;62812;55.188;61.302;2023-06-19T18:19:33;10.81;63.46
74376;HTU21D;62812;55.188;61.302;2023-06-19T18:22:01;10.82;62.23
74376;HTU21D;62812;55.188;61.302;2023-06-19T18:24:31;10.77;63.27
74376;HTU21D;62812;55.188;61.302;2023-06-19T18:26:58;10.77;61.95
74376;HTU21D;62812;55.188;61.302;2023-06-19T18:29:27;10.73;63.21
74376;HTU21D;62812;55.188;61.302;2023-06-19T18:31:57;10.72;62.53
74376;HTU21D;62812;55.188;61.302;2023-06-19T18:34:26;10.66;62.76
74376;HTU21D;62812;55.188;61.302;2023-06-19T18:36:56;10.58;62.24
74376;HTU21D;62812;55.188;61.302;2023-06-19T18:39:25;10.54;63.35
74376;HTU21D;62812;55.188;61.302;2023-06-19T18:41:53;10.48;63.22
74376;HTU21D;62812;55.188;61.302;2023-06-19T18:44:21;10.39;63.18
74376;HTU21D;62812;55.188;61.302;2023-06-19T18:46:49;10.39;63.63
74376;HTU21D;62812;55.188;61.302;2023-06-19T18:49:17;10.41;62.79
74376;HTU21D;62812;55.188;61.302;2023-06-19T18:51:44;10.40;63.27
74376;HTU21D;62812;55.188;61.302;2023-06-19T18:54:16;10.31;63.76
74376;HTU21D;62812;55.188;61.302;2023-06-19T18:56:44;10.24;64.10
74376;HTU21D;62812;55.188;61.302;2023-06-19T18:59:13;10.28;63.35
74376;HTU21D;62812;55.188;61.302;2023-06-19T19:01:41;10.28;63.31
74376;HTU21D;62812;55.188;61.302;2023-06-19T19:04:10;10.29;63.85
74376;HTU21D;62812;55.188;61.302;2023-06-19T19:06:38;10.26;63.03
74376;HTU21D;62812;55.188;61.302;2023-06-19T19:09:06;10.18;63.85
74376;HTU21D;62812;55.188;61.302;2023-06-19T19:11:35;10.13;63.90
74376;HTU21D;62812;55.188;61.302;2023-06-19T19:14:04;10.12;64.34
74376;HTU21D;62812;55.188;61.302;2023-06-19T19:16:30;10.10;63.34
74376;HTU21D;62812;55.188;61.302;2023-06-19T19:18:58;10.05;63.56
74376;HTU21D;62812;55.188;61.302;2023-06-19T19:21:25;10.05;64.58
74376;HTU21D;62812;55.188;61.302;2023-06-19T19:23:52;10.04;64.75
74376;HTU21D;62812;55.188;61.302;2023-06-19T19:26:20;10.00;63.41
74376;HTU21D;62812;55.188;61.302;2023-06-19T19:28:48;9.98;64.55
74376;HTU21D;62812;55.188;61.302;2023-06-19T19:31:16;9.97;63.94
74376;HTU21D;62812;55.188;61.302;2023-06-19T19:33:43;9.98;63.64
74376;HTU21D;62812;55.188;61.302;2023-06-19T19:36:10;10.00;63.79
74376;HTU21D;62812;55.188;61.302;2023-06-19T19:38:51;9.98;65.04